sensor_id;sensor_type;location;lat;lon;timestamp;P1;durP1;ratioP1;P2;durP2;ratioP2
23586;SDS011;11971;51.148;4.104;2023-06-05T00:00:48;89.60;;;37.13;;
23586;SDS011;11971;51.148;4.104;2023-06-05T00:03:15;90.10;;;37.55;;
23586;SDS011;11971;51.148;4.104;2023-06-05T00:05:43;86.53;;;37.13;;
23586;SDS011;11971;51.148;4.104;2023-06-05T00:08:09;88.78;;;37.63;;
23586;SDS011;11971;51.148;4.104;2023-06-05T00:10:36;87.38;;;37.42;;
23586;SDS011;11971;51.148;4.104;2023-06-05T00:13:04;91.13;;;37.22;;
23586;SDS011;11971;51.148;4.104;2023-06-05T00:15:33;91.70;;;37.60;;
23586;SDS011;11971;51.148;4.104;2023-06-05T00:18:02;88.28;;;37.78;;
23586;SDS011;11971;51.148;4.104;2023-06-05T00:20:29;90.75;;;37.92;;
23586;SDS011;11971;51.148;4.104;2023-06-05T00:22:56;89.40;;;37.70;;
23586;SDS011;11971;51.148;4.104;2023-06-05T00:25:23;87.15;;;37.55;;
23586;SDS011;11971;51.148;4.104;2023-06-05T00:27:50;89.38;;;38.13;;
23586;SDS011;11971;51.148;4.104;2023-06-05T00:30:18;89.10;;;37.53;;
23586;SDS011;11971;51.148;4.104;2023-06-05T00:32:44;90.38;;;37.97;;
23586;SDS011;11971;51.148;4.104;2023-06-05T00:35:11;90.70;;;37.92;;
23586;SDS011;11971;51.148;4.104;2023-06-05T00:37:38;90.82;;;37.88;;
23586;SDS011;11971;51.148;4.104;2023-06-05T00:40:05;92.35;;;38.17;;
23586;SDS011;11971;51.148;4.104;2023-06-05T00:42:34;89.70;;;37.60;;
23586;SDS011;11971;51.148;4.104;2023-06-05T00:45:01;90.93;;;37.95;;
23586;SDS011;11971;51.148;4.104;2023-06-05T00:47:29;89.50;;;38.10;;
23586;SDS011;11971;51.148;4.104;2023-06-05T00:49:56;87.27;;;37.80;;
23586;SDS011;11971;51.148;4.104;2023-06-05T00:52:22;89.32;;;37.63;;
23586;SDS011;11971;51.148;4.104;2023-06-05T00:54:49;92.05;;;37.83;;
23586;SDS011;11971;51.148;4.104;2023-06-05T00:57:17;89.70;;;37.92;;
23586;SDS011;11971;51.148;4.104;2023-06-05T00:59:43;91.78;;;38.15;;
23586;SDS011;11971;51.148;4.104;2023-06-05T01:02:10;88.50;;;37.75;;
23586;SDS011;11971;51.148;4.104;2023-06-05T01:04:39;89.63;;;38.10;;
23586;SDS011;11971;51.148;4.104;2023-06-05T01:07:15;86.97;;;37.50;;
23586;SDS011;11971;51.148;4.104;2023-06-05T01:09:42;89.68;;;38.25;;
23586;SDS011;11971;51.148;4.104;2023-06-05T01:12:11;88.53;;;38.17;;
23586;SDS011;11971;51.148;4.104;2023-06-05T01:14:48;91.82;;;38.17;;
23586;SDS011;11971;51.148;4.104;2023-06-05T01:17:15;90.55;;;38.10;;
23586;SDS011;11971;51.148;4.104;2023-06-05T01:19:45;88.57;;;37.90;;
23586;SDS011;11971;51.148;4.104;2023-06-05T01:22:14;86.32;;;37.50;;
23586;SDS011;11971;51.148;4.104;2023-06-05T01:24:43;87.70;;;37.75;;
23586;SDS011;11971;51.148;4.104;2023-06-05T01:27:11;91.95;;;37.80;;
23586;SDS011;11971;51.148;4.104;2023-06-05T01:29:43;87.85;;;37.45;;
23586;SDS011;11971;51.148;4.104;2023-06-05T01:32:19;87.93;;;38.28;;
23586;SDS011;11971;51.148;4.104;2023-06-05T01:34:50;87.20;;;37.85;;
23586;SDS011;11971;51.148;4.104;2023-06-05T01:37:23;94.20;;;38.15;;
23586;SDS011;11971;51.148;4.104;2023-06-05T01:39:54;86.32;;;37.70;;
23586;SDS011;11971;51.148;4.104;2023-06-05T01:42:22;87.70;;;37.83;;
23586;SDS011;11971;51.148;4.104;2023-06-05T01:44:49;91.72;;;38.50;;
23586;SDS011;11971;51.148;4.104;2023-06-05T01:47:16;87.82;;;37.97;;
23586;SDS011;11971;51.148;4.104;2023-06-05T01:49:43;88.28;;;38.30;;
23586;SDS011;11971;51.148;4.104;2023-06-05T01:52:10;89.40;;;37.88;;
23586;SDS011;11971;51.148;4.104;2023-06-05T01:54:36;87.80;;;37.75;;
23586;SDS011;11971;51.148;4.104;2023-06-05T01:57:05;87.70;;;38.13;;
23586;SDS011;11971;51.148;4.104;2023-06-05T01:59:32;89.57;;;38.07;;
23586;SDS011;11971;51.148;4.104;2023-06-05T02:01:59;87.68;;;37.83;;
23586;SDS011;11971;51.148;4.104;2023-06-05T02:04:27;89.60;;;38.30;;
23586;SDS011;11971;51.148;4.104;2023-06-05T02:06:54;87.65;;;38.00;;
23586;SDS011;11971;51.148;4.104;2023-06-05T02:09:28;89.28;;;38.42;;
23586;SDS011;11971;51.148;4.104;2023-06-05T02:11:57;87.95;;;37.90;;
23586;SDS011;11971;51.148;4.104;2023-06-05T02:14:33;87.25;;;37.83;;
23586;SDS011;11971;51.148;4.104;2023-06-05T02:17:02;89.93;;;38.65;;
23586;SDS011;11971;51.148;4.104;2023-06-05T02:19:29;88.55;;;38.17;;
23586;SDS011;11971;51.148;4.104;2023-06-05T02:21:56;87.88;;;37.97;;
23586;SDS011;11971;51.148;4.104;2023-06-05T02:24:23;88.95;;;38.20;;
23586;SDS011;11971;51.148;4.104;2023-06-05T02:26:50;90.55;;;38.15;;
23586;SDS011;11971;51.148;4.104;2023-06-05T02:29:16;88.45;;;38.67;;
23586;SDS011;11971;51.148;4.104;2023-06-05T02:31:45;90.28;;;38.08;;
23586;SDS011;11971;51.148;4.104;2023-06-05T02:34:11;86.60;;;38.13;;
23586;SDS011;11971;51.148;4.104;2023-06-05T02:36:38;88.75;;;37.92;;
23586;SDS011;11971;51.148;4.104;2023-06-05T02:39:05;90.13;;;38.03;;
23586;SDS011;11971;51.148;4.104;2023-06-05T02:41:32;90.35;;;38.17;;
23586;SDS011;11971;51.148;4.104;2023-06-05T02:43:59;90.20;;;38.65;;
23586;SDS011;11971;51.148;4.104;2023-06-05T02:46:25;86.03;;;37.65;;
23586;SDS011;11971;51.148;4.104;2023-06-05T02:48:53;89.93;;;38.25;;
23586;SDS011;11971;51.148;4.104;2023-06-05T02:51:20;88.32;;;37.80;;
23586;SDS011;11971;51.148;4.104;2023-06-05T02:53:47;90.97;;;37.90;;
23586;SDS011;11971;51.148;4.104;2023-06-05T02:56:14;88.20;;;37.95;;
23586;SDS011;11971;51.148;4.104;2023-06-05T02:58:40;86.15;;;37.67;;
23586;SDS011;11971;51.148;4.104;2023-06-05T03:01:08;89.35;;;37.72;;
23586;SDS011;11971;51.148;4.104;2023-06-05T03:03:36;90.30;;;38.08;;
23586;SDS011;11971;51.148;4.104;2023-06-05T03:06:04;91.72;;;38.03;;
23586;SDS011;11971;51.148;4.104;2023-06-05T03:08:32;93.63;;;39.13;;
23586;SDS011;11971;51.148;4.104;2023-06-05T03:10:59;86.10;;;37.83;;
23586;SDS011;11971;51.148;4.104;2023-06-05T03:13:25;91.05;;;38.55;;
23586;SDS011;11971;51.148;4.104;2023-06-05T03:15:52;89.63;;;38.45;;
23586;SDS011;11971;51.148;4.104;2023-06-05T03:18:22;87.63;;;38.03;;
23586;SDS011;11971;51.148;4.104;2023-06-05T03:20:49;91.20;;;38.42;;
23586;SDS011;11971;51.148;4.104;2023-06-05T03:23:17;86.07;;;37.97;;
23586;SDS011;11971;51.148;4.104;2023-06-05T03:25:44;92.85;;;38.70;;
23586;SDS011;11971;51.148;4.104;2023-06-05T03:28:11;97.65;;;38.63;;
23586;SDS011;11971;51.148;4.104;2023-06-05T03:30:37;89.25;;;38.08;;
23586;SDS011;11971;51.148;4.104;2023-06-05T03:33:04;87.60;;;38.20;;
23586;SDS011;11971;51.148;4.104;2023-06-05T03:35:32;88.78;;;37.97;;
23586;SDS011;11971;51.148;4.104;2023-06-05T03:38:00;90.80;;;38.13;;
23586;SDS011;11971;51.148;4.104;2023-06-05T03:40:28;91.13;;;38.67;;
23586;SDS011;11971;51.148;4.104;2023-06-05T03:42:55;92.20;;;38.50;;
23586;SDS011;11971;51.148;4.104;2023-06-05T03:45:21;89.00;;;38.15;;
23586;SDS011;11971;51.148;4.104;2023-06-05T03:47:52;89.20;;;38.05;;
23586;SDS011;11971;51.148;4.104;2023-06-05T03:50:19;91.35;;;38.30;;
23586;SDS011;11971;51.148;4.104;2023-06-05T03:52:46;89.47;;;38.35;;
23586;SDS011;11971;51.148;4.104;2023-06-05T03:55:18;85.93;;;38.05;;
23586;SDS011;11971;51.148;4.104;2023-06-05T03:57:46;87.07;;;38.00;;
23586;SDS011;11971;51.148;4.104;2023-06-05T04:00:13;92.05;;;38.50;;
23586;SDS011;11971;51.148;4.104;2023-06-05T04:02:40;86.18;;;38.15;;
23586;SDS011;11971;51.148;4.104;2023-06-05T04:05:08;86.30;;;38.03;;
23586;SDS011;11971;51.148;4.104;2023-06-05T04:07:36;95.18;;;38.55;;
23586;SDS011;11971;51.148;4.104;2023-06-05T04:10:03;89.25;;;38.22;;
23586;SDS011;11971;51.148;4.104;2023-06-05T04:12:30;94.40;;;38.15;;
23586;SDS011;11971;51.148;4.104;2023-06-05T04:14:59;91.00;;;38.05;;
23586;SDS011;11971;51.148;4.104;2023-06-05T04:17:25;88.30;;;38.33;;
23586;SDS011;11971;51.148;4.104;2023-06-05T04:19:52;89.00;;;38.40;;
23586;SDS011;11971;51.148;4.104;2023-06-05T04:22:19;88.13;;;38.38;;
23586;SDS011;11971;51.148;4.104;2023-06-05T04:24:45;85.70;;;37.67;;
23586;SDS011;11971;51.148;4.104;2023-06-05T04:27:12;89.07;;;38.47;;
23586;SDS011;11971;51.148;4.104;2023-06-05T04:29:39;89.10;;;38.50;;
23586;SDS011;11971;51.148;4.104;2023-06-05T04:32:08;86.45;;;38.08;;
23586;SDS011;11971;51.148;4.104;2023-06-05T04:34:38;92.32;;;38.28;;
23586;SDS011;11971;51.148;4.104;2023-06-05T04:37:05;91.32;;;38.95;;
23586;SDS011;11971;51.148;4.104;2023-06-05T04:39:31;93.45;;;38.67;;
23586;SDS011;11971;51.148;4.104;2023-06-05T04:41:58;93.38;;;38.58;;
23586;SDS011;11971;51.148;4.104;2023-06-05T04:44:25;90.15;;;38.00;;
23586;SDS011;11971;51.148;4.104;2023-06-05T04:46:52;89.35;;;38.85;;
23586;SDS011;11971;51.148;4.104;2023-06-05T04:49:21;91.05;;;38.78;;
23586;SDS011;11971;51.148;4.104;2023-06-05T04:51:49;93.03;;;39.28;;
23586;SDS011;11971;51.148;4.104;2023-06-05T04:54:18;91.25;;;38.58;;
23586;SDS011;11971;51.148;4.104;2023-06-05T04:56:44;90.38;;;38.80;;
23586;SDS011;11971;51.148;4.104;2023-06-05T04:59:14;90.70;;;39.22;;
23586;SDS011;11971;51.148;4.104;2023-06-05T05:01:41;89.65;;;39.15;;
23586;SDS011;11971;51.148;4.104;2023-06-05T05:04:08;90.28;;;38.60;;
23586;SDS011;11971;51.148;4.104;2023-06-05T05:06:38;88.80;;;38.92;;
23586;SDS011;11971;51.148;4.104;2023-06-05T05:11:33;91.15;;;39.28;;
23586;SDS011;11971;51.148;4.104;2023-06-05T05:14:00;91.90;;;39.47;;
23586;SDS011;11971;51.148;4.104;2023-06-05T05:16:27;94.00;;;39.20;;
23586;SDS011;11971;51.148;4.104;2023-06-05T05:18:54;94.40;;;39.05;;
23586;SDS011;11971;51.148;4.104;2023-06-05T05:21:21;93.43;;;39.03;;
23586;SDS011;11971;51.148;4.104;2023-06-05T05:23:49;92.35;;;38.67;;
23586;SDS011;11971;51.148;4.104;2023-06-05T05:26:16;89.73;;;38.90;;
23586;SDS011;11971;51.148;4.104;2023-06-05T05:28:42;92.45;;;39.55;;
23586;SDS011;11971;51.148;4.104;2023-06-05T05:31:09;96.88;;;39.35;;
23586;SDS011;11971;51.148;4.104;2023-06-05T05:33:36;90.82;;;38.83;;
23586;SDS011;11971;51.148;4.104;2023-06-05T05:36:02;90.63;;;39.80;;
23586;SDS011;11971;51.148;4.104;2023-06-05T05:38:29;92.10;;;39.63;;
23586;SDS011;11971;51.148;4.104;2023-06-05T05:40:58;94.63;;;39.33;;
23586;SDS011;11971;51.148;4.104;2023-06-05T05:43:25;91.88;;;39.85;;
23586;SDS011;11971;51.148;4.104;2023-06-05T05:45:51;90.63;;;38.95;;
23586;SDS011;11971;51.148;4.104;2023-06-05T05:48:18;90.32;;;39.38;;
23586;SDS011;11971;51.148;4.104;2023-06-05T05:50:45;94.70;;;39.58;;
23586;SDS011;11971;51.148;4.104;2023-06-05T05:53:11;96.32;;;38.88;;
23586;SDS011;11971;51.148;4.104;2023-06-05T05:55:38;93.05;;;39.60;;
23586;SDS011;11971;51.148;4.104;2023-06-05T05:58:07;91.07;;;39.63;;
23586;SDS011;11971;51.148;4.104;2023-06-05T06:00:33;92.57;;;39.45;;
23586;SDS011;11971;51.148;4.104;2023-06-05T06:03:00;98.60;;;39.47;;
23586;SDS011;11971;51.148;4.104;2023-06-05T06:05:27;91.97;;;39.22;;
23586;SDS011;11971;51.148;4.104;2023-06-05T06:07:55;94.75;;;39.85;;
23586;SDS011;11971;51.148;4.104;2023-06-05T06:10:22;94.57;;;39.50;;
23586;SDS011;11971;51.148;4.104;2023-06-05T06:12:48;94.55;;;39.40;;
23586;SDS011;11971;51.148;4.104;2023-06-05T06:15:16;97.63;;;39.63;;
23586;SDS011;11971;51.148;4.104;2023-06-05T06:17:43;90.75;;;39.55;;
23586;SDS011;11971;51.148;4.104;2023-06-05T06:20:10;94.00;;;39.17;;
23586;SDS011;11971;51.148;4.104;2023-06-05T06:22:39;90.18;;;38.50;;
23586;SDS011;11971;51.148;4.104;2023-06-05T06:25:06;95.38;;;39.67;;
23586;SDS011;11971;51.148;4.104;2023-06-05T06:27:35;95.22;;;40.13;;
23586;SDS011;11971;51.148;4.104;2023-06-05T06:30:02;94.53;;;39.30;;
23586;SDS011;11971;51.148;4.104;2023-06-05T06:32:31;93.00;;;39.58;;
23586;SDS011;11971;51.148;4.104;2023-06-05T06:34:57;94.80;;;39.92;;
23586;SDS011;11971;51.148;4.104;2023-06-05T06:37:24;91.60;;;39.88;;
23586;SDS011;11971;51.148;4.104;2023-06-05T06:39:51;92.65;;;39.38;;
23586;SDS011;11971;51.148;4.104;2023-06-05T06:42:18;93.82;;;39.20;;
23586;SDS011;11971;51.148;4.104;2023-06-05T06:44:44;94.32;;;39.25;;
23586;SDS011;11971;51.148;4.104;2023-06-05T06:47:11;92.10;;;39.03;;
23586;SDS011;11971;51.148;4.104;2023-06-05T06:49:39;92.28;;;39.20;;
23586;SDS011;11971;51.148;4.104;2023-06-05T06:52:06;91.88;;;38.83;;
23586;SDS011;11971;51.148;4.104;2023-06-05T06:54:33;95.35;;;39.25;;
23586;SDS011;11971;51.148;4.104;2023-06-05T06:56:59;91.47;;;38.10;;
23586;SDS011;11971;51.148;4.104;2023-06-05T06:59:26;94.22;;;39.17;;
23586;SDS011;11971;51.148;4.104;2023-06-05T07:02:09;96.93;;;40.40;;
23586;SDS011;11971;51.148;4.104;2023-06-05T07:04:37;98.70;;;38.83;;
23586;SDS011;11971;51.148;4.104;2023-06-05T07:07:07;94.72;;;39.97;;
23586;SDS011;11971;51.148;4.104;2023-06-05T07:09:34;94.38;;;39.90;;
23586;SDS011;11971;51.148;4.104;2023-06-05T07:12:01;104.45;;;40.67;;
23586;SDS011;11971;51.148;4.104;2023-06-05T07:14:30;95.45;;;40.05;;
23586;SDS011;11971;51.148;4.104;2023-06-05T07:16:57;94.90;;;40.17;;
23586;SDS011;11971;51.148;4.104;2023-06-05T07:19:25;99.55;;;40.17;;
23586;SDS011;11971;51.148;4.104;2023-06-05T07:21:53;95.55;;;40.38;;
23586;SDS011;11971;51.148;4.104;2023-06-05T07:24:20;97.43;;;39.38;;
23586;SDS011;11971;51.148;4.104;2023-06-05T07:26:49;94.65;;;39.88;;
23586;SDS011;11971;51.148;4.104;2023-06-05T07:29:17;96.15;;;40.33;;
23586;SDS011;11971;51.148;4.104;2023-06-05T07:31:44;91.60;;;38.92;;
23586;SDS011;11971;51.148;4.104;2023-06-05T07:34:10;108.07;;;40.72;;
23586;SDS011;11971;51.148;4.104;2023-06-05T07:36:38;97.15;;;39.55;;
23586;SDS011;11971;51.148;4.104;2023-06-05T07:39:07;92.80;;;39.63;;
23586;SDS011;11971;51.148;4.104;2023-06-05T07:41:36;95.03;;;39.60;;
23586;SDS011;11971;51.148;4.104;2023-06-05T07:44:04;94.47;;;39.55;;
23586;SDS011;11971;51.148;4.104;2023-06-05T07:46:31;95.25;;;40.03;;
23586;SDS011;11971;51.148;4.104;2023-06-05T07:48:58;95.38;;;39.60;;
23586;SDS011;11971;51.148;4.104;2023-06-05T07:51:24;99.00;;;40.10;;
23586;SDS011;11971;51.148;4.104;2023-06-05T07:53:51;96.55;;;40.47;;
23586;SDS011;11971;51.148;4.104;2023-06-05T07:56:19;101.68;;;40.00;;
23586;SDS011;11971;51.148;4.104;2023-06-05T07:58:48;99.60;;;40.25;;
23586;SDS011;11971;51.148;4.104;2023-06-05T08:01:16;93.10;;;39.35;;
23586;SDS011;11971;51.148;4.104;2023-06-05T08:03:43;98.28;;;40.00;;
23586;SDS011;11971;51.148;4.104;2023-06-05T08:06:10;97.20;;;40.42;;
23586;SDS011;11971;51.148;4.104;2023-06-05T08:08:37;96.05;;;39.47;;
23586;SDS011;11971;51.148;4.104;2023-06-05T08:11:04;95.10;;;40.22;;
23586;SDS011;11971;51.148;4.104;2023-06-05T08:13:33;95.63;;;40.17;;
23586;SDS011;11971;51.148;4.104;2023-06-05T08:16:00;98.20;;;39.88;;
23586;SDS011;11971;51.148;4.104;2023-06-05T08:18:27;96.53;;;39.92;;
23586;SDS011;11971;51.148;4.104;2023-06-05T08:20:54;95.68;;;40.53;;
23586;SDS011;11971;51.148;4.104;2023-06-05T08:23:21;103.75;;;40.42;;
23586;SDS011;11971;51.148;4.104;2023-06-05T08:25:47;96.72;;;40.13;;
23586;SDS011;11971;51.148;4.104;2023-06-05T08:28:14;98.63;;;39.85;;
23586;SDS011;11971;51.148;4.104;2023-06-05T08:30:43;98.90;;;40.42;;
23586;SDS011;11971;51.148;4.104;2023-06-05T08:33:10;98.10;;;40.75;;
23586;SDS011;11971;51.148;4.104;2023-06-05T08:35:39;97.45;;;40.30;;
23586;SDS011;11971;51.148;4.104;2023-06-05T08:38:06;98.18;;;40.22;;
23586;SDS011;11971;51.148;4.104;2023-06-05T08:40:33;100.45;;;40.55;;
23586;SDS011;11971;51.148;4.104;2023-06-05T08:43:02;99.93;;;40.33;;
23586;SDS011;11971;51.148;4.104;2023-06-05T08:45:30;101.50;;;40.10;;
23586;SDS011;11971;51.148;4.104;2023-06-05T08:47:58;99.53;;;40.30;;
23586;SDS011;11971;51.148;4.104;2023-06-05T08:50:26;95.40;;;39.25;;
23586;SDS011;11971;51.148;4.104;2023-06-05T08:52:54;100.60;;;41.17;;
23586;SDS011;11971;51.148;4.104;2023-06-05T08:55:23;96.85;;;40.53;;
23586;SDS011;11971;51.148;4.104;2023-06-05T08:57:49;101.30;;;40.70;;
23586;SDS011;11971;51.148;4.104;2023-06-05T09:00:16;98.80;;;41.10;;
23586;SDS011;11971;51.148;4.104;2023-06-05T09:02:43;98.07;;;41.10;;
23586;SDS011;11971;51.148;4.104;2023-06-05T09:05:13;97.50;;;40.88;;
23586;SDS011;11971;51.148;4.104;2023-06-05T09:07:40;100.17;;;40.40;;
23586;SDS011;11971;51.148;4.104;2023-06-05T09:10:20;98.85;;;40.95;;
23586;SDS011;11971;51.148;4.104;2023-06-05T09:12:55;96.53;;;40.63;;
23586;SDS011;11971;51.148;4.104;2023-06-05T09:15:22;95.78;;;40.45;;
23586;SDS011;11971;51.148;4.104;2023-06-05T09:18:01;103.63;;;41.53;;
23586;SDS011;11971;51.148;4.104;2023-06-05T09:20:34;99.20;;;40.72;;
23586;SDS011;11971;51.148;4.104;2023-06-05T09:23:02;98.65;;;41.03;;
23586;SDS011;11971;51.148;4.104;2023-06-05T09:25:43;101.20;;;41.28;;
23586;SDS011;11971;51.148;4.104;2023-06-05T09:28:14;96.03;;;39.88;;
23586;SDS011;11971;51.148;4.104;2023-06-05T09:30:57;103.05;;;41.53;;
23586;SDS011;11971;51.148;4.104;2023-06-05T09:33:24;99.65;;;41.42;;
23586;SDS011;11971;51.148;4.104;2023-06-05T09:36:15;101.85;;;41.85;;
23586;SDS011;11971;51.148;4.104;2023-06-05T09:38:42;107.75;;;42.15;;
23586;SDS011;11971;51.148;4.104;2023-06-05T09:41:09;101.38;;;41.33;;
23586;SDS011;11971;51.148;4.104;2023-06-05T09:43:39;105.07;;;41.30;;
23586;SDS011;11971;51.148;4.104;2023-06-05T09:46:07;104.75;;;41.78;;
23586;SDS011;11971;51.148;4.104;2023-06-05T09:48:34;98.72;;;40.90;;
23586;SDS011;11971;51.148;4.104;2023-06-05T09:53:47;99.35;;;41.67;;
23586;SDS011;11971;51.148;4.104;2023-06-05T09:56:14;103.82;;;41.50;;
23586;SDS011;11971;51.148;4.104;2023-06-05T09:58:45;99.72;;;41.75;;
23586;SDS011;11971;51.148;4.104;2023-06-05T10:01:16;100.82;;;41.40;;
23586;SDS011;11971;51.148;4.104;2023-06-05T10:03:47;103.43;;;42.45;;
23586;SDS011;11971;51.148;4.104;2023-06-05T10:06:15;100.57;;;42.10;;
23586;SDS011;11971;51.148;4.104;2023-06-05T10:08:48;100.90;;;41.47;;
23586;SDS011;11971;51.148;4.104;2023-06-05T10:11:16;103.00;;;41.67;;
23586;SDS011;11971;51.148;4.104;2023-06-05T10:13:43;103.30;;;42.45;;
23586;SDS011;11971;51.148;4.104;2023-06-05T10:16:10;103.68;;;41.70;;
23586;SDS011;11971;51.148;4.104;2023-06-05T10:18:37;106.80;;;42.25;;
23586;SDS011;11971;51.148;4.104;2023-06-05T10:21:04;103.97;;;41.88;;
23586;SDS011;11971;51.148;4.104;2023-06-05T10:23:32;102.95;;;41.75;;
23586;SDS011;11971;51.148;4.104;2023-06-05T10:25:59;105.63;;;41.85;;
23586;SDS011;11971;51.148;4.104;2023-06-05T10:28:35;105.60;;;42.15;;
23586;SDS011;11971;51.148;4.104;2023-06-05T10:31:18;102.90;;;42.63;;
23586;SDS011;11971;51.148;4.104;2023-06-05T10:36:46;103.50;;;41.88;;
23586;SDS011;11971;51.148;4.104;2023-06-05T10:39:21;103.78;;;42.08;;
23586;SDS011;11971;51.148;4.104;2023-06-05T10:41:50;103.82;;;42.67;;
23586;SDS011;11971;51.148;4.104;2023-06-05T10:44:17;105.35;;;42.28;;
23586;SDS011;11971;51.148;4.104;2023-06-05T10:46:46;102.97;;;42.42;;
23586;SDS011;11971;51.148;4.104;2023-06-05T10:49:13;102.47;;;42.20;;
23586;SDS011;11971;51.148;4.104;2023-06-05T10:51:41;102.90;;;41.97;;
23586;SDS011;11971;51.148;4.104;2023-06-05T10:54:09;105.17;;;41.83;;
23586;SDS011;11971;51.148;4.104;2023-06-05T10:56:54;101.70;;;42.67;;
23586;SDS011;11971;51.148;4.104;2023-06-05T10:59:26;103.93;;;41.67;;
23586;SDS011;11971;51.148;4.104;2023-06-05T11:05:03;102.22;;;42.20;;
23586;SDS011;11971;51.148;4.104;2023-06-05T11:07:35;105.22;;;42.92;;
23586;SDS011;11971;51.148;4.104;2023-06-05T11:10:06;108.68;;;42.75;;
23586;SDS011;11971;51.148;4.104;2023-06-05T11:15:37;106.90;;;43.15;;
23586;SDS011;11971;51.148;4.104;2023-06-05T11:20:57;107.15;;;41.95;;
23586;SDS011;11971;51.148;4.104;2023-06-05T11:23:24;104.55;;;43.17;;
23586;SDS011;11971;51.148;4.104;2023-06-05T11:25:52;103.93;;;43.00;;
23586;SDS011;11971;51.148;4.104;2023-06-05T11:28:38;104.72;;;43.05;;
23586;SDS011;11971;51.148;4.104;2023-06-05T11:31:06;105.07;;;43.05;;
23586;SDS011;11971;51.148;4.104;2023-06-05T11:33:33;105.70;;;43.90;;
23586;SDS011;11971;51.148;4.104;2023-06-05T11:36:00;103.72;;;42.85;;
23586;SDS011;11971;51.148;4.104;2023-06-05T11:38:27;106.28;;;43.40;;
23586;SDS011;11971;51.148;4.104;2023-06-05T11:40:54;108.40;;;42.90;;
23586;SDS011;11971;51.148;4.104;2023-06-05T11:43:20;104.22;;;43.70;;
23586;SDS011;11971;51.148;4.104;2023-06-05T11:45:53;111.30;;;43.45;;
23586;SDS011;11971;51.148;4.104;2023-06-05T11:48:20;110.65;;;43.70;;
23586;SDS011;11971;51.148;4.104;2023-06-05T11:50:51;105.80;;;43.17;;
23586;SDS011;11971;51.148;4.104;2023-06-05T11:53:19;109.00;;;43.80;;
23586;SDS011;11971;51.148;4.104;2023-06-05T11:55:46;108.07;;;43.50;;
23586;SDS011;11971;51.148;4.104;2023-06-05T11:58:31;106.10;;;43.97;;
23586;SDS011;11971;51.148;4.104;2023-06-05T12:03:47;111.22;;;44.08;;
23586;SDS011;11971;51.148;4.104;2023-06-05T12:06:14;101.47;;;42.83;;
23586;SDS011;11971;51.148;4.104;2023-06-05T12:08:42;103.45;;;42.95;;
23586;SDS011;11971;51.148;4.104;2023-06-05T12:11:21;103.45;;;42.85;;
23586;SDS011;11971;51.148;4.104;2023-06-05T12:13:49;104.32;;;43.22;;
23586;SDS011;11971;51.148;4.104;2023-06-05T12:16:18;110.75;;;43.13;;
23586;SDS011;11971;51.148;4.104;2023-06-05T12:18:47;114.07;;;43.80;;
23586;SDS011;11971;51.148;4.104;2023-06-05T12:21:21;111.35;;;44.63;;
23586;SDS011;11971;51.148;4.104;2023-06-05T12:23:49;108.53;;;44.08;;
23586;SDS011;11971;51.148;4.104;2023-06-05T12:26:16;109.07;;;43.47;;
23586;SDS011;11971;51.148;4.104;2023-06-05T12:28:43;107.20;;;43.17;;
23586;SDS011;11971;51.148;4.104;2023-06-05T12:33:59;106.72;;;43.10;;
23586;SDS011;11971;51.148;4.104;2023-06-05T12:36:26;114.32;;;43.05;;
23586;SDS011;11971;51.148;4.104;2023-06-05T12:38:53;104.43;;;42.80;;
23586;SDS011;11971;51.148;4.104;2023-06-05T12:41:20;103.45;;;43.40;;
23586;SDS011;11971;51.148;4.104;2023-06-05T12:43:57;113.95;;;43.50;;
23586;SDS011;11971;51.148;4.104;2023-06-05T12:46:24;109.75;;;43.60;;
23586;SDS011;11971;51.148;4.104;2023-06-05T12:48:52;105.05;;;42.78;;
23586;SDS011;11971;51.148;4.104;2023-06-05T12:51:19;105.22;;;43.05;;
23586;SDS011;11971;51.148;4.104;2023-06-05T12:53:46;105.90;;;43.15;;
23586;SDS011;11971;51.148;4.104;2023-06-05T12:56:12;103.03;;;42.50;;
23586;SDS011;11971;51.148;4.104;2023-06-05T12:58:39;109.60;;;43.45;;
23586;SDS011;11971;51.148;4.104;2023-06-05T13:01:05;104.22;;;42.97;;
23586;SDS011;11971;51.148;4.104;2023-06-05T13:03:32;100.05;;;40.65;;
23586;SDS011;11971;51.148;4.104;2023-06-05T13:06:00;101.95;;;42.28;;
23586;SDS011;11971;51.148;4.104;2023-06-05T13:08:28;102.70;;;42.40;;
23586;SDS011;11971;51.148;4.104;2023-06-05T13:10:55;99.88;;;40.95;;
23586;SDS011;11971;51.148;4.104;2023-06-05T13:13:22;103.38;;;42.17;;
23586;SDS011;11971;51.148;4.104;2023-06-05T13:15:48;107.70;;;42.83;;
23586;SDS011;11971;51.148;4.104;2023-06-05T13:18:15;103.40;;;41.40;;
23586;SDS011;11971;51.148;4.104;2023-06-05T13:20:41;113.40;;;42.42;;
23586;SDS011;11971;51.148;4.104;2023-06-05T13:23:09;103.82;;;42.30;;
23586;SDS011;11971;51.148;4.104;2023-06-05T13:25:36;107.78;;;42.72;;
23586;SDS011;11971;51.148;4.104;2023-06-05T13:28:04;105.85;;;43.70;;
23586;SDS011;11971;51.148;4.104;2023-06-05T13:30:31;102.50;;;42.28;;
23586;SDS011;11971;51.148;4.104;2023-06-05T13:32:59;100.00;;;41.40;;
23586;SDS011;11971;51.148;4.104;2023-06-05T13:35:25;102.97;;;42.60;;
23586;SDS011;11971;51.148;4.104;2023-06-05T13:37:52;101.78;;;42.53;;
23586;SDS011;11971;51.148;4.104;2023-06-05T13:40:20;102.30;;;41.30;;
23586;SDS011;11971;51.148;4.104;2023-06-05T13:42:47;101.78;;;42.03;;
23586;SDS011;11971;51.148;4.104;2023-06-05T13:45:16;102.70;;;42.35;;
23586;SDS011;11971;51.148;4.104;2023-06-05T13:47:43;100.00;;;41.42;;
23586;SDS011;11971;51.148;4.104;2023-06-05T13:50:10;101.13;;;42.13;;
23586;SDS011;11971;51.148;4.104;2023-06-05T13:52:37;102.20;;;41.33;;
23586;SDS011;11971;51.148;4.104;2023-06-05T13:55:04;100.90;;;42.05;;
23586;SDS011;11971;51.148;4.104;2023-06-05T13:57:33;104.33;;;42.60;;
23586;SDS011;11971;51.148;4.104;2023-06-05T14:00:00;102.82;;;41.80;;
23586;SDS011;11971;51.148;4.104;2023-06-05T14:02:27;101.35;;;42.38;;
23586;SDS011;11971;51.148;4.104;2023-06-05T14:04:54;101.47;;;42.35;;
23586;SDS011;11971;51.148;4.104;2023-06-05T14:07:20;98.80;;;40.25;;
23586;SDS011;11971;51.148;4.104;2023-06-05T14:09:47;100.55;;;41.78;;
23586;SDS011;11971;51.148;4.104;2023-06-05T14:12:14;103.18;;;42.08;;
23586;SDS011;11971;51.148;4.104;2023-06-05T14:14:43;102.05;;;42.13;;
23586;SDS011;11971;51.148;4.104;2023-06-05T14:17:09;102.32;;;42.00;;
23586;SDS011;11971;51.148;4.104;2023-06-05T14:19:36;100.20;;;41.08;;
23586;SDS011;11971;51.148;4.104;2023-06-05T14:22:03;107.95;;;42.13;;
23586;SDS011;11971;51.148;4.104;2023-06-05T14:24:30;100.13;;;40.65;;
23586;SDS011;11971;51.148;4.104;2023-06-05T14:26:57;101.63;;;41.67;;
23586;SDS011;11971;51.148;4.104;2023-06-05T14:29:24;100.72;;;41.58;;
23586;SDS011;11971;51.148;4.104;2023-06-05T14:31:52;99.50;;;41.08;;
23586;SDS011;11971;51.148;4.104;2023-06-05T14:34:19;103.43;;;41.67;;
23586;SDS011;11971;51.148;4.104;2023-06-05T14:36:45;101.80;;;41.55;;
23586;SDS011;11971;51.148;4.104;2023-06-05T14:39:15;102.43;;;41.47;;
23586;SDS011;11971;51.148;4.104;2023-06-05T14:41:43;99.45;;;40.78;;
23586;SDS011;11971;51.148;4.104;2023-06-05T14:44:10;101.85;;;41.80;;